Time;durP1;ratioP1;P1;durP2;ratioP2;P2;SDS_P1;SDS_P2;PMS_P1;PMS_P2;Temp;Humidity;BMP_temperature;BMP_pressure;BME280_temperature;BME280_humidity;BME280_pressure;Samples;Min_cycle;Max_cycle;Signal;HPM_P1;HPM_P2
2022/01/10 00:01:46;;;;;;;18.73;8.80;;;;;;;;;;4998705;28;20308;-53
2022/01/10 06:12:13;;;;;;;14.03;8.43;;;;;;;;;;3222888;27;20236;-55
2022/01/10 06:14:39;;;;;;;17.17;9.77;;;;;;;;;;4883688;28;20272;-55
2022/01/10 06:17:05;;;;;;;15.30;8.93;;;;;;;;;;4886830;28;20238;-54
2022/01/10 06:19:39;;;;;;;19.93;10.37;;;;;;;;;;4893504;28;20240;-55
2022/01/10 06:22:05;;;;;;;15.53;8.63;;;;;;;;;;4892448;28;20236;-55
2022/01/10 06:24:31;;;;;;;20.93;9.60;;;;;;;;;;4897924;28;20240;-55
2022/01/10 06:27:06;;;;;;;13.23;8.90;;;;;;;;;;4856055;28;20252;-55
2022/01/10 06:32:42;;;;;;;14.63;9.33;;;;;;;;;;4867387;28;20299;-55
2022/01/10 06:35:08;;;;;;;18.40;8.80;;;;;;;;;;4887558;28;20247;-55
2022/01/10 06:37:34;;;;;;;12.40;8.20;;;;;;;;;;4894158;28;20233;-55
2022/01/10 06:40:00;;;;;;;14.87;8.80;;;;;;;;;;4891008;28;20242;-55
2022/01/10 06:42:26;;;;;;;15.57;8.93;;;;;;;;;;4883719;29;20229;-55
2022/01/10 06:44:52;;;;;;;13.93;8.10;;;;;;;;;;4897342;28;20858;-55
2022/01/10 06:47:18;;;;;;;14.87;8.03;;;;;;;;;;4895392;28;20243;-55
2022/01/10 06:49:44;;;;;;;17.50;8.40;;;;;;;;;;4879541;28;20251;-55
2022/01/10 06:52:10;;;;;;;13.23;8.17;;;;;;;;;;4899393;28;20324;-55
2022/01/10 06:54:36;;;;;;;17.60;8.43;;;;;;;;;;4902270;28;20290;-55
2022/01/10 06:57:02;;;;;;;15.47;8.53;;;;;;;;;;4895968;28;20632;-55
2022/01/10 06:59:28;;;;;;;16.67;8.97;;;;;;;;;;4901458;29;20235;-55
2022/01/10 07:01:58;;;;;;;17.43;8.47;;;;;;;;;;4903856;28;20320;-55
2022/01/10 07:04:24;;;;;;;13.13;7.77;;;;;;;;;;4891677;28;20611;-55
2022/01/10 07:06:50;;;;;;;13.83;8.63;;;;;;;;;;4910652;28;20738;-55
2022/01/10 07:09:16;;;;;;;13.43;8.37;;;;;;;;;;4910392;28;20236;-55
2022/01/10 07:11:42;;;;;;;16.07;8.57;;;;;;;;;;4905892;28;20272;-55
2022/01/10 07:14:08;;;;;;;16.00;9.13;;;;;;;;;;4901763;28;20235;-55
2022/01/10 07:16:34;;;;;;;15.10;8.27;;;;;;;;;;4906930;28;20754;-55
2022/01/10 07:19:01;;;;;;;19.03;8.80;;;;;;;;;;4899440;28;20703;-54
2022/01/10 07:21:27;;;;;;;14.67;8.53;;;;;;;;;;4896946;28;20283;-55
2022/01/10 07:23:53;;;;;;;19.07;9.77;;;;;;;;;;4913893;28;20725;-54
2022/01/10 07:26:19;;;;;;;14.07;8.70;;;;;;;;;;4901140;28;20299;-55
2022/01/10 07:28:45;;;;;;;15.17;8.37;;;;;;;;;;4903938;28;20311;-54
2022/01/10 07:31:10;;;;;;;10.70;7.17;;;;;;;;;;4905289;28;20652;-55
2022/01/10 07:33:37;;;;;;;13.50;7.97;;;;;;;;;;4906348;28;20321;-55
2022/01/10 07:36:04;;;;;;;14.73;7.60;;;;;;;;;;4901048;28;20841;-54
2022/01/10 07:38:35;;;;;;;13.63;7.80;;;;;;;;;;4903138;28;20338;-55
2022/01/10 07:41:01;;;;;;;15.40;8.97;;;;;;;;;;4906735;28;20246;-54
2022/01/10 07:43:27;;;;;;;12.13;7.87;;;;;;;;;;4903973;28;21395;-54
2022/01/10 07:45:53;;;;;;;13.77;7.90;;;;;;;;;;4903976;28;20244;-55
2022/01/10 07:48:19;;;;;;;15.97;7.90;;;;;;;;;;4893344;28;20270;-55
2022/01/10 07:50:45;;;;;;;12.23;8.07;;;;;;;;;;4912245;28;20616;-55
2022/01/10 07:53:11;;;;;;;15.30;7.70;;;;;;;;;;4899441;28;20394;-55
2022/01/10 07:55:37;;;;;;;10.50;7.50;;;;;;;;;;4905573;28;20792;-54
2022/01/10 07:58:03;;;;;;;12.80;8.03;;;;;;;;;;4901814;28;20258;-55
2022/01/10 08:00:29;;;;;;;14.23;7.87;;;;;;;;;;4893583;28;20232;-55
2022/01/10 08:02:55;;;;;;;11.63;7.40;;;;;;;;;;4887134;28;20813;-54
2022/01/10 08:05:21;;;;;;;11.07;6.90;;;;;;;;;;4912059;28;20239;-54
2022/01/10 08:07:47;;;;;;;12.40;7.30;;;;;;;;;;4895952;28;20273;-53
2022/01/10 08:10:13;;;;;;;12.73;6.87;;;;;;;;;;4898084;28;20718;-54
2022/01/10 08:12:39;;;;;;;17.13;8.17;;;;;;;;;;4880103;28;20283;-54
2022/01/10 08:15:05;;;;;;;12.23;7.03;;;;;;;;;;4896624;28;20726;-54
2022/01/10 08:17:31;;;;;;;12.10;8.03;;;;;;;;;;4901238;28;20235;-54
2022/01/10 08:19:57;;;;;;;11.30;7.10;;;;;;;;;;4897383;28;20234;-53
2022/01/10 08:22:23;;;;;;;11.77;7.17;;;;;;;;;;4907637;28;20314;-54
2022/01/10 08:24:51;;;;;;;12.23;6.87;;;;;;;;;;4897750;28;20770;-54
2022/01/10 08:27:17;;;;;;;11.23;6.70;;;;;;;;;;4900433;28;20236;-54
2022/01/10 08:29:43;;;;;;;10.10;6.80;;;;;;;;;;4910014;28;20777;-54
2022/01/10 08:32:09;;;;;;;13.60;6.80;;;;;;;;;;4900708;28;20601;-54
2022/01/10 08:34:35;;;;;;;10.10;6.80;;;;;;;;;;4887577;29;20328;-54
2022/01/10 08:37:01;;;;;;;11.57;7.63;;;;;;;;;;4890300;29;20268;-54
2022/01/10 08:39:27;;;;;;;10.67;6.50;;;;;;;;;;4887588;28;20970;-54
2022/01/10 08:41:53;;;;;;;10.87;6.50;;;;;;;;;;4898292;28;20294;-54
2022/01/10 08:44:19;;;;;;;12.30;6.90;;;;;;;;;;4891202;28;20236;-54
2022/01/10 08:46:45;;;;;;;12.00;7.07;;;;;;;;;;4895688;28;20244;-54
2022/01/10 08:49:12;;;;;;;12.23;7.20;;;;;;;;;;4889225;28;20329;-54
2022/01/10 08:51:38;;;;;;;12.20;7.20;;;;;;;;;;4891857;28;20235;-54
2022/01/10 08:54:04;;;;;;;11.23;6.63;;;;;;;;;;4870418;28;20286;-54
2022/01/10 08:56:32;;;;;;;17.67;6.90;;;;;;;;;;4900949;28;20239;-54
2022/01/10 08:58:58;;;;;;;11.97;6.83;;;;;;;;;;4889871;28;20796;-53
2022/01/10 09:01:24;;;;;;;11.13;6.43;;;;;;;;;;4881305;28;20874;-54
2022/01/10 09:03:50;;;;;;;10.67;7.27;;;;;;;;;;4896154;28;20642;-54
2022/01/10 09:06:16;;;;;;;14.63;8.27;;;;;;;;;;4896870;28;20947;-54
2022/01/10 09:08:42;;;;;;;16.20;8.53;;;;;;;;;;4900377;28;20240;-54
2022/01/10 09:11:08;;;;;;;14.93;8.50;;;;;;;;;;4888415;28;20305;-54
2022/01/10 09:13:34;;;;;;;15.23;8.40;;;;;;;;;;4900963;28;20244;-54
2022/01/10 09:16:02;;;;;;;14.17;7.87;;;;;;;;;;4889631;28;20286;-54
2022/01/10 09:18:28;;;;;;;16.07;8.90;;;;;;;;;;4896222;28;20466;-54
2022/01/10 09:20:55;;;;;;;21.93;8.87;;;;;;;;;;4894658;28;20232;-53
2022/01/10 09:23:21;;;;;;;17.23;8.40;;;;;;;;;;4898780;28;20275;-54
2022/01/10 09:25:49;;;;;;;13.90;8.80;;;;;;;;;;4894550;28;20748;-54
2022/01/10 09:28:15;;;;;;;17.90;8.73;;;;;;;;;;4905192;28;21109;-53
2022/01/10 09:30:41;;;;;;;14.63;8.90;;;;;;;;;;4887862;28;20372;-54
2022/01/10 09:33:07;;;;;;;12.13;8.77;;;;;;;;;;4892813;28;20237;-54
2022/01/10 09:35:33;;;;;;;14.63;8.70;;;;;;;;;;4885197;28;20228;-54
2022/01/10 09:37:59;;;;;;;15.97;9.40;;;;;;;;;;4900347;28;20851;-54
2022/01/10 09:40:25;;;;;;;15.30;8.73;;;;;;;;;;4895199;28;20236;-54
2022/01/10 09:42:51;;;;;;;11.77;8.03;;;;;;;;;;4869771;29;20877;-54
2022/01/10 09:45:17;;;;;;;12.93;8.83;;;;;;;;;;4876806;29;20291;-53
2022/01/10 09:47:43;;;;;;;15.20;8.80;;;;;;;;;;4886257;29;20277;-54
2022/01/10 09:50:09;;;;;;;14.97;8.50;;;;;;;;;;4877779;29;20243;-54
2022/01/10 09:52:35;;;;;;;15.77;8.67;;;;;;;;;;4890264;28;20999;-53
2022/01/10 09:55:01;;;;;;;12.80;8.77;;;;;;;;;;4886219;29;20271;-54
2022/01/10 09:57:27;;;;;;;15.30;8.63;;;;;;;;;;4889361;29;20245;-54
2022/01/10 09:59:53;;;;;;;14.87;7.83;;;;;;;;;;4869402;29;20253;-54
2022/01/10 10:02:20;;;;;;;16.27;9.17;;;;;;;;;;4889110;28;20301;-55
2022/01/10 10:04:46;;;;;;;16.37;8.70;;;;;;;;;;4892546;29;20283;-53
2022/01/10 10:07:13;;;;;;;13.97;8.03;;;;;;;;;;4903067;28;20442;-54
2022/01/10 10:09:40;;;;;;;13.70;8.73;;;;;;;;;;4901728;28;20655;-54
2022/01/10 10:12:06;;;;;;;13.47;8.17;;;;;;;;;;4911672;28;20240;-54
2022/01/10 10:14:32;;;;;;;12.93;8.07;;;;;;;;;;4908895;28;20294;-54
2022/01/10 10:17:06;;;;;;;12.27;6.93;;;;;;;;;;4876650;29;20240;-54
2022/01/10 10:19:32;;;;;;;9.40;6.97;;;;;;;;;;4887608;28;20244;-54
2022/01/10 10:21:58;;;;;;;13.57;7.10;;;;;;;;;;4882660;29;20640;-54
2022/01/10 10:24:24;;;;;;;12.57;5.93;;;;;;;;;;4899751;28;20236;-54
2022/01/10 10:26:51;;;;;;;12.97;6.90;;;;;;;;;;4895735;28;20288;-54
2022/01/10 10:29:18;;;;;;;14.13;6.10;;;;;;;;;;4889209;29;20607;-54
2022/01/10 10:31:46;;;;;;;9.57;6.77;;;;;;;;;;4893044;28;20228;-54
2022/01/10 10:34:17;;;;;;;11.53;6.30;;;;;;;;;;4897727;28;20301;-54
2022/01/10 10:36:43;;;;;;;10.40;5.87;;;;;;;;;;4889235;29;20600;-55
2022/01/10 10:39:10;;;;;;;12.60;6.40;;;;;;;;;;4895416;28;20508;-55
2022/01/10 10:41:36;;;;;;;13.23;6.13;;;;;;;;;;4903862;28;20228;-54
2022/01/10 10:44:02;;;;;;;9.80;6.10;;;;;;;;;;4887838;29;20601;-55
2022/01/10 10:46:28;;;;;;;10.17;6.63;;;;;;;;;;4884860;29;20238;-55
2022/01/10 10:49:04;;;;;;;10.13;6.53;;;;;;;;;;4883348;29;20245;-55
2022/01/10 10:51:31;;;;;;;14.00;6.93;;;;;;;;;;4880462;29;20253;-54
2022/01/10 10:54:01;;;;;;;9.90;6.17;;;;;;;;;;4880160;29;20267;-56
2022/01/10 10:56:27;;;;;;;16.33;6.80;;;;;;;;;;4885924;28;20243;-56
2022/01/10 10:58:53;;;;;;;15.13;7.67;;;;;;;;;;4872057;28;20713;-56
2022/01/10 11:01:19;;;;;;;18.37;7.80;;;;;;;;;;4899511;28;20299;-56
2022/01/10 11:03:45;;;;;;;12.80;7.13;;;;;;;;;;4895448;28;20273;-57
2022/01/10 11:06:11;;;;;;;12.50;7.60;;;;;;;;;;4895717;28;20712;-57
2022/01/10 11:08:38;;;;;;;14.03;7.07;;;;;;;;;;4883405;29;20237;-57
2022/01/10 11:11:04;;;;;;;10.03;6.73;;;;;;;;;;4901262;28;20718;-57
2022/01/10 11:13:30;;;;;;;11.47;6.77;;;;;;;;;;4890460;28;20231;-57
2022/01/10 11:15:57;;;;;;;14.20;7.47;;;;;;;;;;4904355;28;20591;-57
2022/01/10 11:18:23;;;;;;;15.63;7.10;;;;;;;;;;4894933;28;20241;-57
2022/01/10 11:20:50;;;;;;;13.17;7.30;;;;;;;;;;4905940;28;20236;-57
2022/01/10 11:23:16;;;;;;;12.53;6.90;;;;;;;;;;4909122;28;20225;-56
2022/01/10 11:25:42;;;;;;;13.63;6.87;;;;;;;;;;4906007;28;20239;-57
2022/01/10 11:28:12;;;;;;;13.50;7.10;;;;;;;;;;4913364;28;21184;-57
2022/01/10 11:30:39;;;;;;;14.33;7.47;;;;;;;;;;4911087;28;20240;-57
2022/01/10 11:33:09;;;;;;;12.67;7.30;;;;;;;;;;4906815;28;20232;-57
2022/01/10 11:35:35;;;;;;;15.03;7.57;;;;;;;;;;4884178;29;20237;-57
2022/01/10 11:38:01;;;;;;;14.67;7.43;;;;;;;;;;4900358;28;20880;-57
2022/01/10 11:40:28;;;;;;;16.83;7.97;;;;;;;;;;4865099;29;20239;-57
2022/01/10 11:42:55;;;;;;;13.83;7.73;;;;;;;;;;4896257;28;20463;-57
2022/01/10 11:45:21;;;;;;;13.43;7.13;;;;;;;;;;4895534;28;20228;-56
2022/01/10 11:48:02;;;;;;;12.23;7.80;;;;;;;;;;4900624;28;20295;-57
2022/01/10 11:50:29;;;;;;;13.17;7.63;;;;;;;;;;4890607;28;20431;-57
2022/01/10 11:52:55;;;;;;;11.73;8.20;;;;;;;;;;4900610;28;20229;-57
2022/01/10 11:55:35;;;;;;;14.67;8.20;;;;;;;;;;4884023;29;20243;-57
2022/01/10 11:58:20;;;;;;;16.67;8.00;;;;;;;;;;4897689;29;20232;-57
2022/01/10 12:00:46;;;;;;;12.23;7.30;;;;;;;;;;4905661;28;20497;-57
2022/01/10 12:03:12;;;;;;;13.23;7.70;;;;;;;;;;4900716;28;20231;-57
2022/01/10 12:05:39;;;;;;;18.30;7.90;;;;;;;;;;4895215;28;20330;-57
2022/01/10 12:08:05;;;;;;;17.93;8.07;;;;;;;;;;4903973;28;20263;-56
2022/01/10 12:10:32;;;;;;;15.50;7.73;;;;;;;;;;4894528;28;20319;-56
2022/01/10 12:13:06;;;;;;;19.77;7.90;;;;;;;;;;4893237;28;20857;-56
2022/01/10 12:15:32;;;;;;;18.90;7.53;;;;;;;;;;4918227;28;20779;-56
2022/01/10 12:17:58;;;;;;;14.77;6.97;;;;;;;;;;4891182;29;20335;-58
2022/01/10 12:20:25;;;;;;;17.63;7.60;;;;;;;;;;4905353;28;20238;-57
2022/01/10 12:22:54;;;;;;;15.40;7.50;;;;;;;;;;4899842;28;20243;-57
2022/01/10 12:25:20;;;;;;;16.37;7.80;;;;;;;;;;4898955;28;20246;-57
2022/01/10 12:27:46;;;;;;;15.03;6.73;;;;;;;;;;4894784;28;20669;-57
2022/01/10 12:30:13;;;;;;;21.73;7.83;;;;;;;;;;4897987;28;20239;-57
2022/01/10 12:32:39;;;;;;;14.57;7.20;;;;;;;;;;4899577;28;20236;-57
2022/01/10 12:35:05;;;;;;;12.17;7.20;;;;;;;;;;4893521;28;20243;-56
2022/01/10 12:37:31;;;;;;;16.40;7.33;;;;;;;;;;4896580;28;20371;-57
2022/01/10 12:39:57;;;;;;;16.87;7.57;;;;;;;;;;4886100;28;20245;-57
2022/01/10 12:42:26;;;;;;;14.03;7.47;;;;;;;;;;4900513;28;20655;-57
2022/01/10 12:44:53;;;;;;;14.90;7.43;;;;;;;;;;4900284;28;20231;-57
2022/01/10 12:47:19;;;;;;;19.77;7.47;;;;;;;;;;4892997;28;20872;-56
2022/01/10 12:49:47;;;;;;;15.83;7.80;;;;;;;;;;4898272;28;20233;-56
2022/01/10 12:52:13;;;;;;;15.30;7.17;;;;;;;;;;4903147;28;20244;-56
2022/01/10 12:54:39;;;;;;;14.80;7.00;;;;;;;;;;4889427;28;20786;-57
2022/01/10 12:57:05;;;;;;;16.57;7.83;;;;;;;;;;4907141;28;20842;-56
2022/01/10 12:59:32;;;;;;;16.10;7.53;;;;;;;;;;4901476;28;20237;-57
2022/01/10 13:01:59;;;;;;;15.53;7.80;;;;;;;;;;4904222;28;20322;-57
2022/01/10 13:04:26;;;;;;;17.50;8.07;;;;;;;;;;4898269;28;20235;-56
2022/01/10 13:06:52;;;;;;;18.47;7.67;;;;;;;;;;4897935;28;20593;-56
2022/01/10 13:09:19;;;;;;;13.13;7.60;;;;;;;;;;4885208;29;20393;-56
2022/01/10 13:11:47;;;;;;;16.23;7.93;;;;;;;;;;4893794;28;20251;-56
2022/01/10 13:14:14;;;;;;;17.03;7.20;;;;;;;;;;4895343;28;20335;-56
2022/01/10 13:16:41;;;;;;;20.20;8.17;;;;;;;;;;4890186;28;20233;-58
2022/01/10 13:19:08;;;;;;;15.17;7.87;;;;;;;;;;4887930;29;20232;-59
2022/01/10 13:21:37;;;;;;;12.17;6.17;;;;;;;;;;4907568;28;20406;-57
2022/01/10 13:24:11;;;;;;;13.60;6.93;;;;;;;;;;4897572;28;20236;-56
2022/01/10 13:26:53;;;;;;;16.87;8.13;;;;;;;;;;4892109;28;20372;-55
2022/01/10 13:29:38;;;;;;;18.77;8.03;;;;;;;;;;4901715;28;20231;-56
2022/01/10 13:32:16;;;;;;;18.70;8.40;;;;;;;;;;4902577;28;20275;-56
2022/01/10 13:34:42;;;;;;;15.10;8.20;;;;;;;;;;4895508;28;20249;-55
2022/01/10 13:37:11;;;;;;;16.73;8.10;;;;;;;;;;4908426;28;20237;-55
2022/01/10 13:39:37;;;;;;;20.13;8.40;;;;;;;;;;4895056;28;20238;-54
2022/01/10 13:42:05;;;;;;;15.30;8.13;;;;;;;;;;4901414;28;20232;-54
2022/01/10 13:44:32;;;;;;;15.23;8.33;;;;;;;;;;4899383;28;20243;-54
2022/01/10 13:47:07;;;;;;;19.53;9.87;;;;;;;;;;4892532;28;20248;-55
2022/01/10 13:49:34;;;;;;;22.07;9.97;;;;;;;;;;4895410;28;20321;-54
2022/01/10 13:52:07;;;;;;;16.27;9.30;;;;;;;;;;4902872;28;20287;-54
2022/01/10 13:54:33;;;;;;;18.30;9.87;;;;;;;;;;4911518;28;20244;-54
2022/01/10 13:57:13;;;;;;;16.23;8.77;;;;;;;;;;4901533;28;20654;-55
2022/01/10 13:59:39;;;;;;;21.40;9.97;;;;;;;;;;4899483;28;20320;-55
2022/01/10 14:02:05;;;;;;;21.07;9.67;;;;;;;;;;4899140;28;20236;-55
2022/01/10 14:04:33;;;;;;;19.37;9.33;;;;;;;;;;4896926;29;20247;-54
2022/01/10 14:07:00;;;;;;;17.00;8.93;;;;;;;;;;4896858;29;20246;-55
2022/01/10 14:09:29;;;;;;;18.97;9.80;;;;;;;;;;4898313;28;20240;-55
2022/01/10 14:11:55;;;;;;;17.80;10.13;;;;;;;;;;4896237;29;20380;-55
2022/01/10 14:14:21;;;;;;;21.87;10.80;;;;;;;;;;4889718;28;20725;-57
2022/01/10 14:16:49;;;;;;;16.63;9.93;;;;;;;;;;4887997;28;20435;-55
2022/01/10 14:19:16;;;;;;;17.03;9.03;;;;;;;;;;4891413;29;20252;-55
2022/01/10 14:21:42;;;;;;;18.30;9.30;;;;;;;;;;4891531;29;20269;-55
2022/01/10 14:24:08;;;;;;;17.97;9.23;;;;;;;;;;4882912;28;20893;-55
2022/01/10 14:26:35;;;;;;;15.87;9.60;;;;;;;;;;4874438;28;20241;-54
2022/01/10 14:29:04;;;;;;;18.30;10.40;;;;;;;;;;4881239;29;20717;-54
2022/01/10 14:31:30;;;;;;;18.23;10.40;;;;;;;;;;4891662;28;20235;-54
2022/01/10 14:33:56;;;;;;;19.90;10.20;;;;;;;;;;4888658;28;20300;-54
2022/01/10 14:36:23;;;;;;;17.50;11.00;;;;;;;;;;4870213;29;20341;-56
2022/01/10 14:38:49;;;;;;;18.83;10.40;;;;;;;;;;4890167;28;20258;-54
2022/01/10 14:41:14;;;;;;;20.50;10.70;;;;;;;;;;4889233;28;20243;-54
2022/01/10 14:43:40;;;;;;;18.37;10.60;;;;;;;;;;4898294;28;20227;-56
2022/01/10 14:46:08;;;;;;;17.37;10.13;;;;;;;;;;4892368;28;20233;-56
2022/01/10 14:48:34;;;;;;;22.93;11.00;;;;;;;;;;4873095;29;20744;-54
2022/01/10 14:51:00;;;;;;;18.77;10.27;;;;;;;;;;4888887;29;20236;-54
2022/01/10 14:53:26;;;;;;;16.47;9.80;;;;;;;;;;4888546;29;20259;-53
2022/01/10 14:55:55;;;;;;;19.33;10.00;;;;;;;;;;4892991;29;20229;-54
2022/01/10 14:58:21;;;;;;;21.07;10.70;;;;;;;;;;4886805;29;20350;-55
2022/01/10 15:00:48;;;;;;;20.07;10.73;;;;;;;;;;4895951;28;20228;-55
2022/01/10 15:03:14;;;;;;;16.03;9.97;;;;;;;;;;4892205;28;20241;-54
2022/01/10 15:05:41;;;;;;;18.47;10.43;;;;;;;;;;4873528;29;20240;-54
2022/01/10 15:08:07;;;;;;;21.97;11.50;;;;;;;;;;4890060;28;20326;-54
2022/01/10 15:10:33;;;;;;;23.67;11.67;;;;;;;;;;4887320;29;20697;-55
2022/01/10 15:12:59;;;;;;;21.53;12.33;;;;;;;;;;4881671;28;20251;-55
2022/01/10 15:15:25;;;;;;;19.53;12.10;;;;;;;;;;4879831;28;20237;-55
2022/01/10 15:17:51;;;;;;;18.97;12.83;;;;;;;;;;4881290;28;22794;-55
2022/01/10 15:20:17;;;;;;;23.97;12.60;;;;;;;;;;4877244;29;20254;-55
2022/01/10 15:22:43;;;;;;;24.20;12.60;;;;;;;;;;4879427;28;20293;-54
2022/01/10 15:25:09;;;;;;;20.50;12.43;;;;;;;;;;4888457;29;20648;-54
2022/01/10 15:27:35;;;;;;;25.37;12.40;;;;;;;;;;4888773;29;20648;-55
2022/01/10 15:30:01;;;;;;;22.70;12.73;;;;;;;;;;4881081;29;20302;-55
2022/01/10 15:32:27;;;;;;;23.67;12.37;;;;;;;;;;4887652;28;20231;-55
2022/01/10 15:34:53;;;;;;;19.63;12.97;;;;;;;;;;4862144;29;20856;-55
2022/01/10 15:37:19;;;;;;;24.33;12.50;;;;;;;;;;4883061;29;20244;-55
2022/01/10 15:39:45;;;;;;;24.47;12.43;;;;;;;;;;4882015;29;24625;-55
2022/01/10 15:42:14;;;;;;;24.40;12.13;;;;;;;;;;4883139;29;20406;-55
2022/01/10 15:44:40;;;;;;;18.93;11.90;;;;;;;;;;4884424;29;20318;-55
2022/01/10 15:47:06;;;;;;;19.83;12.10;;;;;;;;;;4886202;29;20244;-55
2022/01/10 15:49:32;;;;;;;18.10;11.93;;;;;;;;;;4872099;29;20254;-54
2022/01/10 15:51:58;;;;;;;24.53;12.50;;;;;;;;;;4881180;28;20251;-55
2022/01/10 15:54:24;;;;;;;25.27;13.00;;;;;;;;;;4878606;28;20785;-55
2022/01/10 15:56:50;;;;;;;23.57;13.07;;;;;;;;;;4879100;29;20873;-54
2022/01/10 15:59:16;;;;;;;20.70;12.77;;;;;;;;;;4886232;29;20232;-54
2022/01/10 16:01:43;;;;;;;23.20;13.53;;;;;;;;;;4879561;28;20243;-55
2022/01/10 16:04:09;;;;;;;25.53;14.10;;;;;;;;;;4870379;29;20287;-54
2022/01/10 16:06:35;;;;;;;20.90;13.50;;;;;;;;;;4869759;28;20239;-54
2022/01/10 16:09:01;;;;;;;27.07;13.47;;;;;;;;;;4851170;29;20252;-55
2022/01/10 16:11:27;;;;;;;22.07;12.90;;;;;;;;;;4869686;28;20252;-55
2022/01/10 16:13:53;;;;;;;18.90;12.67;;;;;;;;;;4883217;28;20239;-54
2022/01/10 16:16:19;;;;;;;21.83;13.17;;;;;;;;;;4873383;28;20360;-54
2022/01/10 16:18:45;;;;;;;20.50;12.80;;;;;;;;;;4885198;28;20264;-57
2022/01/10 16:21:11;;;;;;;23.57;13.07;;;;;;;;;;4890291;28;20820;-54
2022/01/10 16:23:38;;;;;;;24.30;14.10;;;;;;;;;;4871546;29;20240;-54
2022/01/10 16:26:04;;;;;;;23.97;13.47;;;;;;;;;;4889545;28;20243;-54
2022/01/10 16:28:30;;;;;;;25.07;14.00;;;;;;;;;;4860462;29;20232;-54
2022/01/10 16:30:56;;;;;;;26.97;15.73;;;;;;;;;;4859987;29;20389;-53
2022/01/10 16:33:22;;;;;;;25.27;14.17;;;;;;;;;;4879859;28;20711;-54
2022/01/10 16:35:50;;;;;;;24.47;14.40;;;;;;;;;;4877690;28;20235;-54
2022/01/10 16:38:18;;;;;;;26.23;13.47;;;;;;;;;;4876817;28;20230;-54
2022/01/10 16:40:44;;;;;;;27.23;13.93;;;;;;;;;;4866543;28;21675;-54
2022/01/10 16:43:10;;;;;;;25.60;14.67;;;;;;;;;;4868605;28;20255;-53
2022/01/10 16:45:36;;;;;;;26.37;14.17;;;;;;;;;;4881993;28;20903;-54
2022/01/10 16:48:02;;;;;;;30.97;14.07;;;;;;;;;;4883124;28;20273;-54
2022/01/10 16:50:28;;;;;;;23.33;14.13;;;;;;;;;;4873579;28;20432;-54
2022/01/10 16:52:54;;;;;;;26.30;14.57;;;;;;;;;;4872643;28;20998;-53
2022/01/10 16:55:20;;;;;;;28.60;14.97;;;;;;;;;;4880543;28;20240;-54
2022/01/10 16:57:46;;;;;;;25.87;14.57;;;;;;;;;;4876830;28;20721;-54
2022/01/10 17:00:12;;;;;;;28.87;14.73;;;;;;;;;;4887845;28;21038;-54
2022/01/10 17:02:38;;;;;;;25.57;14.83;;;;;;;;;;4877793;28;20294;-54
2022/01/10 17:05:05;;;;;;;29.00;14.70;;;;;;;;;;4880577;28;20231;-55
2022/01/10 17:07:31;;;;;;;26.93;15.03;;;;;;;;;;4868861;28;20323;-54
2022/01/10 17:09:57;;;;;;;23.83;14.50;;;;;;;;;;4874531;29;20228;-54
2022/01/10 17:12:24;;;;;;;24.87;14.53;;;;;;;;;;4880973;28;20271;-54
2022/01/10 17:14:50;;;;;;;27.43;13.83;;;;;;;;;;4862872;29;20248;-55
2022/01/10 17:30:15;;;;;;;27.90;14.87;;;;;;;;;;3954082;23;20228;-66
2022/01/10 17:32:41;;;;;;;28.77;15.67;;;;;;;;;;4887964;28;20739;-67
2022/01/10 17:35:07;;;;;;;24.77;14.60;;;;;;;;;;4824097;28;20318;-64
2022/01/10 17:37:33;;;;;;;30.27;15.37;;;;;;;;;;4897253;28;20236;-64
2022/01/10 17:40:00;;;;;;;29.40;15.20;;;;;;;;;;4897507;28;20716;-63
2022/01/10 17:42:29;;;;;;;23.00;14.60;;;;;;;;;;4903617;28;20239;-63
2022/01/10 17:44:55;;;;;;;24.63;14.50;;;;;;;;;;4882191;28;20228;-63
2022/01/10 17:50:31;;;;;;;25.10;14.97;;;;;;;;;;5004879;23;20221;-64
2022/01/10 17:52:57;;;;;;;27.50;15.37;;;;;;;;;;4919578;28;20239;-64
2022/01/10 17:55:23;;;;;;;29.37;16.43;;;;;;;;;;4923336;28;20267;-64
2022/01/10 17:57:49;;;;;;;31.20;15.90;;;;;;;;;;4926340;28;20250;-64
2022/01/10 18:00:16;;;;;;;26.93;15.03;;;;;;;;;;4926837;28;20376;-64
2022/01/10 18:02:42;;;;;;;25.43;15.33;;;;;;;;;;4902987;28;20903;-64
2022/01/10 18:05:08;;;;;;;28.97;15.53;;;;;;;;;;4914221;28;20231;-64
2022/01/10 18:07:34;;;;;;;27.77;15.77;;;;;;;;;;4908217;28;20290;-64
2022/01/10 18:10:00;;;;;;;29.77;16.10;;;;;;;;;;4913051;28;20631;-63
2022/01/10 18:12:26;;;;;;;29.90;16.80;;;;;;;;;;4912480;28;20287;-63
2022/01/10 18:14:52;;;;;;;26.40;16.40;;;;;;;;;;4900722;28;20278;-63
2022/01/10 18:17:18;;;;;;;31.63;15.77;;;;;;;;;;4920928;28;20235;-63
2022/01/10 18:19:44;;;;;;;27.97;15.77;;;;;;;;;;4910165;28;20235;-64
2022/01/10 18:22:10;;;;;;;26.77;15.73;;;;;;;;;;4922651;28;20246;-64
2022/01/10 18:24:36;;;;;;;33.07;18.13;;;;;;;;;;4918455;28;20607;-64
2022/01/10 18:27:02;;;;;;;28.20;16.57;;;;;;;;;;4881383;29;20411;-63
2022/01/10 18:29:30;;;;;;;29.13;15.20;;;;;;;;;;4860914;28;20279;-63
2022/01/10 18:31:56;;;;;;;32.30;15.93;;;;;;;;;;4881685;28;20243;-63
2022/01/10 18:34:22;;;;;;;27.73;16.53;;;;;;;;;;4905791;28;20973;-64
2022/01/10 18:36:48;;;;;;;31.50;17.03;;;;;;;;;;4887120;28;20349;-64
2022/01/10 18:39:14;;;;;;;26.23;15.10;;;;;;;;;;4902972;28;20331;-63
2022/01/10 18:41:41;;;;;;;26.77;14.93;;;;;;;;;;4905291;28;20252;-64
2022/01/10 18:44:07;;;;;;;24.03;15.33;;;;;;;;;;4894562;28;20240;-64
2022/01/10 18:46:33;;;;;;;27.60;15.13;;;;;;;;;;4917932;28;20358;-64
2022/01/10 18:49:00;;;;;;;23.07;14.13;;;;;;;;;;4904451;28;20325;-65
2022/01/10 18:51:26;;;;;;;24.67;14.93;;;;;;;;;;4912637;28;20250;-65
2022/01/10 18:53:52;;;;;;;25.40;15.00;;;;;;;;;;4906184;28;20641;-65
2022/01/10 18:56:18;;;;;;;27.43;15.00;;;;;;;;;;4879655;28;20228;-64
2022/01/10 18:58:44;;;;;;;26.70;15.80;;;;;;;;;;4906721;28;20243;-62
2022/01/10 19:01:11;;;;;;;30.83;16.73;;;;;;;;;;4884250;28;20724;-63
2022/01/10 19:03:37;;;;;;;27.93;15.80;;;;;;;;;;4885957;29;20244;-64
2022/01/10 19:06:03;;;;;;;27.23;15.47;;;;;;;;;;4883822;28;20251;-64
2022/01/10 19:08:29;;;;;;;28.80;16.60;;;;;;;;;;4887458;28;20325;-65
2022/01/10 19:10:56;;;;;;;28.57;15.97;;;;;;;;;;4881237;28;20740;-64
2022/01/10 19:13:23;;;;;;;31.53;16.93;;;;;;;;;;4904046;28;20236;-63
2022/01/10 19:15:49;;;;;;;32.23;17.27;;;;;;;;;;4879437;28;20236;-63
2022/01/10 19:18:15;;;;;;;24.53;15.00;;;;;;;;;;4907733;28;20239;-63
2022/01/10 19:20:44;;;;;;;25.80;16.57;;;;;;;;;;4890420;28;20246;-63
2022/01/10 19:23:10;;;;;;;28.60;16.53;;;;;;;;;;4913339;28;20664;-63
2022/01/10 19:25:36;;;;;;;29.67;17.00;;;;;;;;;;4905333;28;20244;-64
2022/01/10 19:28:06;;;;;;;28.50;16.23;;;;;;;;;;4882170;28;20330;-63
2022/01/10 19:30:32;;;;;;;29.97;17.40;;;;;;;;;;4882795;28;20580;-63
2022/01/10 19:32:58;;;;;;;27.93;17.10;;;;;;;;;;4903169;28;20358;-64
2022/01/10 19:35:24;;;;;;;34.57;18.70;;;;;;;;;;4890781;28;20238;-63
2022/01/10 19:37:50;;;;;;;36.97;17.00;;;;;;;;;;4893701;28;20233;-62
2022/01/10 19:40:16;;;;;;;27.30;16.80;;;;;;;;;;4873521;28;20232;-63
2022/01/10 19:42:42;;;;;;;32.90;16.40;;;;;;;;;;4907526;28;20291;-63
2022/01/10 19:45:08;;;;;;;32.23;18.07;;;;;;;;;;4909292;28;20991;-62
2022/01/10 19:47:34;;;;;;;30.87;18.80;;;;;;;;;;4879015;28;20690;-64
2022/01/10 19:50:00;;;;;;;32.00;18.93;;;;;;;;;;4907691;28;20342;-64
2022/01/10 19:52:28;;;;;;;34.67;18.97;;;;;;;;;;4910074;28;20236;-64
2022/01/10 19:54:54;;;;;;;31.40;18.63;;;;;;;;;;4908829;28;20671;-64
2022/01/10 19:57:20;;;;;;;31.70;19.27;;;;;;;;;;4906560;28;20234;-64
2022/01/10 19:59:46;;;;;;;33.97;18.83;;;;;;;;;;4894488;28;20354;-63
2022/01/10 20:02:12;;;;;;;35.37;19.30;;;;;;;;;;4875045;28;20336;-62
2022/01/10 20:04:38;;;;;;;36.57;19.87;;;;;;;;;;4907391;28;20224;-62
2022/01/10 20:07:04;;;;;;;33.03;19.43;;;;;;;;;;4905311;28;20248;-63
2022/01/10 20:09:30;;;;;;;34.43;20.33;;;;;;;;;;4911291;28;20239;-62
2022/01/10 20:11:56;;;;;;;36.90;19.90;;;;;;;;;;4892808;28;20881;-63
2022/01/10 20:14:22;;;;;;;37.67;20.27;;;;;;;;;;4912759;28;20224;-62
2022/01/10 20:16:48;;;;;;;29.60;18.63;;;;;;;;;;4911466;28;20250;-64
2022/01/10 20:19:14;;;;;;;30.30;20.20;;;;;;;;;;4882060;28;20339;-64
2022/01/10 20:21:40;;;;;;;31.73;18.90;;;;;;;;;;4913438;28;20349;-64
2022/01/10 20:24:06;;;;;;;35.87;18.93;;;;;;;;;;4889645;28;20701;-64
2022/01/10 20:26:33;;;;;;;29.67;18.50;;;;;;;;;;4893883;28;20270;-64
2022/01/10 20:28:59;;;;;;;31.97;19.57;;;;;;;;;;4911369;28;20231;-65
2022/01/10 20:31:25;;;;;;;29.70;18.10;;;;;;;;;;4887469;28;20240;-65
2022/01/10 20:33:51;;;;;;;34.23;18.87;;;;;;;;;;4908962;28;20235;-64
2022/01/10 20:36:17;;;;;;;30.87;19.17;;;;;;;;;;4890607;28;20240;-64
2022/01/10 20:38:43;;;;;;;29.37;18.50;;;;;;;;;;4912348;28;20982;-64
2022/01/10 20:41:09;;;;;;;35.70;18.50;;;;;;;;;;4912612;28;20246;-64
2022/01/10 20:43:37;;;;;;;30.53;19.17;;;;;;;;;;4916247;28;20247;-64
2022/01/10 20:46:03;;;;;;;30.57;18.20;;;;;;;;;;4918099;28;20219;-64
2022/01/10 20:48:29;;;;;;;27.40;16.57;;;;;;;;;;4912210;28;20280;-64